KORE

Orange Municipal Airport

Orange, Massachusetts, USA
METAR KORE 182218Z AUTO 21008KT 10SM TS SCT016 BKN055 24/22 A2977 RMK AO2 PK WND 23037/2200 LTG DSNT ALQDS RAE16 P0003 T02440217
Observed Flight Rules
Jun-18 @ 22:18 UTC (16 minutes ago) Visual Flight Rules
Wind Visibility Clouds Conditions
210° at 8 knots 10 miles
  • Scattered at 1,600' AGL
  • Broken at 5,500' AGL
  • Thunderstorm
Temperatures Readings Precipitation
Current 24°C / 75°F
Dewpoint 22°C / 72°F
Humidity 89%
Altimeter 29.77" Hg
Pressure 1008 hPa
Elevation 164
Current Rain 0.03
METAR KORE 182218Z AUTO 21008KT 10SM TS SCT016 BKN055 24/22 A2977 RMK AO2 PK WND 23037/2200 LTG DSNT ALQDS RAE16 P0003 T02440217
Observed Flight Rules
Jun-18 @ 22:18 UTC
(16 minutes ago)
VFR
Wind Visibility
210° at 8 knots 10 miles
Clouds
  • Scattered at 1,600' AGL
  • Broken at 5,500' AGL
Conditions
  • Thunderstorm
Temperature Dewpoint
24°C / 75°F 22°C / 72°F
Humidity Altimeter Pressure
89% 29.77" Hg 1008 hPa
Current Rain
0.03